Time;durP1;ratioP1;P1;durP2;ratioP2;P2;SDS_P1;SDS_P2;PMS_P1;PMS_P2;Temp;Humidity;BMP_temperature;BMP_pressure;BME280_temperature;BME280_humidity;BME280_pressure;Samples;Min_cycle;Max_cycle;Signal;HPM_P1;HPM_P2
2021/11/04 00:00:33;;;;;;;2.72;1.00;;;8.40;99.90;;;;;;5076521;28;20029;-65
2021/11/04 00:02:59;;;;;;;1.48;0.98;;;8.30;99.90;;;;;;5075199;28;20158;-66
2021/11/04 00:05:25;;;;;;;12.88;5.38;;;8.20;99.90;;;;;;5075473;28;20378;-66
2021/11/04 00:07:52;;;;;;;3.70;2.10;;;8.20;99.90;;;;;;5075870;28;20032;-66
2021/11/04 00:10:19;;;;;;;3.35;1.80;;;8.20;99.90;;;;;;5076150;28;20028;-67
2021/11/04 00:12:45;;;;;;;1.90;1.38;;;8.30;99.90;;;;;;5075275;28;20032;-67
2021/11/04 00:15:11;;;;;;;3.77;1.63;;;8.30;99.90;;;;;;5073643;28;20030;-67
2021/11/04 00:17:37;;;;;;;2.72;1.48;;;8.40;99.90;;;;;;5073811;28;20123;-67
2021/11/04 00:20:04;;;;;;;;;;;8.50;99.90;;;;;;5076559;28;20042;-67
2021/11/04 00:22:29;;;;;;;2.50;1.48;;;8.50;99.90;;;;;;5076100;28;19966;-66
2021/11/04 00:24:55;;;;;;;2.90;1.97;;;8.60;99.90;;;;;;5075601;28;20478;-67
2021/11/04 00:27:21;;;;;;;2.65;2.00;;;8.60;99.90;;;;;;5076176;28;20025;-66
2021/11/04 00:29:47;;;;;;;10.38;4.65;;;8.70;99.90;;;;;;5074494;28;20040;-68
2021/11/04 00:32:12;;;;;;;6.07;3.17;;;8.50;99.90;;;;;;5075486;28;20028;-66
2021/11/04 00:34:38;;;;;;;15.90;7.30;;;8.50;99.90;;;;;;5074588;28;20043;-66
2021/11/04 00:37:04;;;;;;;6.93;3.40;;;8.50;99.90;;;;;;5074288;28;20131;-66
2021/11/04 00:39:29;;;;;;;7.53;4.07;;;8.60;99.90;;;;;;5073011;28;20017;-66
2021/11/04 00:41:55;;;;;;;4.27;2.53;;;8.60;99.90;;;;;;5074389;28;20028;-66
2021/11/04 00:44:21;;;;;;;3.23;1.50;;;8.50;99.90;;;;;;5072748;28;20066;-66
2021/11/04 00:46:47;;;;;;;6.95;2.83;;;8.50;99.90;;;;;;5072893;28;20063;-66
2021/11/04 00:49:12;;;;;;;2.58;1.88;;;8.30;99.90;;;;;;5072905;28;20039;-66
2021/11/04 00:51:38;;;;;;;2.20;1.73;;;8.20;99.90;;;;;;5074185;28;20028;-66
2021/11/04 00:54:04;;;;;;;3.90;1.70;;;8.30;99.90;;;;;;5074085;28;20031;-66
2021/11/04 00:56:29;;;;;;;3.50;1.60;;;8.20;99.90;;;;;;5073876;28;20063;-66
2021/11/04 00:58:55;;;;;;;3.67;2.77;;;8.20;99.90;;;;;;5073979;28;20267;-66
2021/11/04 01:01:22;;;;;;;2.43;1.93;;;8.20;99.90;;;;;;5073814;28;20025;-66
2021/11/04 01:03:49;;;;;;;2.50;1.33;;;8.20;99.90;;;;;;5073454;28;20078;-65
2021/11/04 01:06:16;;;;;;;2.70;1.52;;;8.10;99.90;;;;;;5073846;28;20453;-65
2021/11/04 01:08:41;;;;;;;2.60;1.75;;;8.20;99.90;;;;;;5074144;28;20020;-66
2021/11/04 01:11:08;;;;;;;2.97;1.77;;;8.20;99.90;;;;;;5072805;28;20032;-65
2021/11/04 01:13:34;;;;;;;3.60;2.13;;;8.10;99.90;;;;;;5073393;28;20626;-66
2021/11/04 01:16:00;;;;;;;;;;;8.00;99.90;;;;;;5074611;28;20028;-67
2021/11/04 01:18:26;;;;;;;3.28;2.00;;;8.10;99.90;;;;;;5074341;28;19914;-67
2021/11/04 01:20:52;;;;;;;3.28;1.85;;;8.00;99.90;;;;;;5074004;28;20099;-66
2021/11/04 01:23:18;;;;;;;3.88;2.40;;;8.00;99.90;;;;;;5073635;28;20025;-66
2021/11/04 01:25:44;;;;;;;4.67;2.37;;;8.00;99.90;;;;;;5072753;28;20497;-66
2021/11/04 01:28:10;;;;;;;5.20;2.10;;;7.90;99.90;;;;;;5074024;28;20389;-66
2021/11/04 01:30:36;;;;;;;5.13;2.37;;;7.90;99.90;;;;;;5072265;28;20062;-66
2021/11/04 01:33:03;;;;;;;3.85;2.20;;;7.80;99.90;;;;;;5073581;28;20052;-66
2021/11/04 01:35:31;;;;;;;3.17;2.50;;;7.90;99.90;;;;;;5073415;28;20039;-67
2021/11/04 01:38:01;;;;;;;6.03;2.38;;;7.90;99.90;;;;;;5073286;28;20032;-67
2021/11/04 01:40:27;;;;;;;5.43;2.83;;;7.80;99.90;;;;;;5072032;28;20024;-66
2021/11/04 01:43:00;;;;;;;4.90;2.90;;;7.70;99.90;;;;;;5072178;28;20043;-67
2021/11/04 01:45:26;;;;;;;3.15;2.50;;;7.70;99.90;;;;;;5073305;28;20024;-67
2021/11/04 01:47:52;;;;;;;3.63;2.80;;;7.70;99.90;;;;;;5074937;28;20025;-67
2021/11/04 01:50:21;;;;;;;7.43;3.80;;;7.60;99.90;;;;;;5075026;28;20029;-67
2021/11/04 01:52:47;;;;;;;4.32;2.78;;;7.60;99.90;;;;;;5083952;28;20021;-67
2021/11/04 01:55:19;;;;;;;5.13;3.20;;;7.80;99.90;;;;;;5088522;28;20124;-66
2021/11/04 01:57:44;;;;;;;4.63;2.85;;;7.80;99.90;;;;;;5087167;28;20032;-66
2021/11/04 02:00:11;;;;;;;4.55;2.92;;;7.90;99.90;;;;;;5089334;28;20098;-67
2021/11/04 02:02:44;;;;;;;7.05;3.80;;;7.80;99.90;;;;;;5090923;28;20088;-67
2021/11/04 02:05:12;;;;;;;4.85;3.60;;;7.70;99.90;;;;;;5082234;28;20021;-67
2021/11/04 02:08:03;;;;;;;6.45;3.80;;;7.70;99.90;;;;;;5075711;28;20475;-67
2021/11/04 02:10:36;;;;;;;6.03;4.00;;;7.70;99.90;;;;;;5073675;28;20071;-66
2021/11/04 02:13:20;;;;;;;5.88;3.78;;;7.60;99.90;;;;;;5075940;28;20020;-67
2021/11/04 02:15:50;;;;;;;4.63;3.50;;;7.50;99.90;;;;;;5073311;28;20025;-67
2021/11/04 02:18:19;;;;;;;4.53;3.38;;;7.50;99.90;;;;;;5073128;28;20070;-65
2021/11/04 02:21:02;;;;;;;8.20;4.03;;;7.50;99.90;;;;;;5072995;28;20020;-65
2021/11/04 02:23:45;;;;;;;5.25;4.07;;;7.50;99.90;;;;;;5073071;28;20032;-65
2021/11/04 02:26:12;;;;;;;6.15;4.10;;;7.50;99.90;;;;;;5074739;28;20021;-66
2021/11/04 02:28:39;;;;;;;6.32;4.15;;;7.50;99.90;;;;;;5076029;28;20028;-66
2021/11/04 02:31:08;;;;;;;6.50;4.22;;;7.40;99.90;;;;;;5077026;28;20454;-65
2021/11/04 02:33:35;;;;;;;5.05;3.70;;;7.40;99.90;;;;;;5075213;28;20108;-66
2021/11/04 02:36:01;;;;;;;5.50;3.78;;;7.30;99.90;;;;;;5076877;28;20020;-66
2021/11/04 02:38:31;;;;;;;6.18;3.83;;;7.30;99.90;;;;;;5076520;28;20501;-67
2021/11/04 02:40:58;;;;;;;4.82;3.78;;;7.30;99.90;;;;;;5074990;28;20024;-66
2021/11/04 02:43:24;;;;;;;5.97;3.60;;;7.40;99.90;;;;;;5076806;28;20048;-66
2021/11/04 02:45:52;;;;;;;6.95;3.97;;;7.40;99.90;;;;;;5076526;28;20025;-66
2021/11/04 02:48:18;;;;;;;5.65;3.78;;;7.40;99.90;;;;;;5076556;28;20058;-67
2021/11/04 02:50:48;;;;;;;7.47;3.95;;;7.40;99.90;;;;;;5075004;28;20155;-66
2021/11/04 02:53:15;;;;;;;5.38;3.85;;;7.40;99.90;;;;;;5074652;28;20032;-66
2021/11/04 02:55:42;;;;;;;6.85;3.97;;;7.30;99.90;;;;;;5074556;28;20047;-65
2021/11/04 02:58:12;;;;;;;7.57;4.25;;;7.30;99.90;;;;;;5076083;28;20027;-65
2021/11/04 03:00:42;;;;;;;6.60;4.38;;;7.30;99.90;;;;;;5076265;28;20024;-64
2021/11/04 03:03:07;;;;;;;5.63;3.90;;;7.50;99.90;;;;;;5075834;28;20024;-65
2021/11/04 03:05:33;;;;;;;6.67;3.50;;;7.50;99.90;;;;;;5075820;28;20590;-65
2021/11/04 03:07:59;;;;;;;5.15;3.70;;;7.50;99.90;;;;;;5075894;28;20074;-65
2021/11/04 03:10:25;;;;;;;8.80;3.97;;;7.60;99.90;;;;;;5077661;28;20033;-66
2021/11/04 03:12:52;;;;;;;5.65;3.70;;;7.60;99.90;;;;;;5075346;28;20052;-66
2021/11/04 03:15:21;;;;;;;6.03;4.38;;;7.40;99.90;;;;;;5075480;28;20033;-66
2021/11/04 03:17:52;;;;;;;5.45;4.07;;;7.50;99.90;;;;;;5075694;28;20024;-66
2021/11/04 03:20:19;;;;;;;6.82;4.25;;;7.40;99.90;;;;;;5075546;28;20017;-66
2021/11/04 03:22:46;;;;;;;6.57;4.57;;;7.30;99.90;;;;;;5075345;28;20074;-66
2021/11/04 03:25:15;;;;;;;6.85;4.88;;;7.30;99.90;;;;;;5075212;28;20032;-66
2021/11/04 03:27:43;;;;;;;8.02;4.75;;;7.20;99.90;;;;;;5074202;28;20079;-66
2021/11/04 03:30:11;;;;;;;6.05;4.55;;;7.20;99.90;;;;;;5075199;28;20110;-66
2021/11/04 03:32:38;;;;;;;7.97;4.70;;;7.30;99.90;;;;;;5074401;28;20032;-66
2021/11/04 03:35:06;;;;;;;8.15;5.30;;;7.20;99.90;;;;;;5074803;28;20033;-66
2021/11/04 03:37:32;;;;;;;7.28;5.05;;;7.30;99.90;;;;;;5074958;28;20039;-66
2021/11/04 03:39:59;;;;;;;6.65;5.05;;;7.30;99.90;;;;;;5073681;28;20544;-66
2021/11/04 03:42:26;;;;;;;6.82;5.03;;;7.20;99.90;;;;;;5074898;28;20033;-66
2021/11/04 03:44:53;;;;;;;5.65;4.50;;;7.30;99.90;;;;;;5073559;28;20021;-67
2021/11/04 03:47:18;;;;;;;6.93;5.35;;;7.20;99.90;;;;;;5075200;28;20099;-66
2021/11/04 03:49:49;;;;;;;7.95;5.30;;;7.10;99.90;;;;;;5073580;28;20075;-66
2021/11/04 03:52:15;;;;;;;8.23;5.53;;;7.10;99.90;;;;;;5073514;28;20029;-66
2021/11/04 03:54:41;;;;;;;6.80;4.97;;;7.10;99.90;;;;;;5073423;28;20635;-66
2021/11/04 03:57:07;;;;;;;9.02;5.03;;;7.10;99.90;;;;;;5074749;28;20039;-66
2021/11/04 03:59:32;;;;;;;6.63;5.17;;;7.10;99.90;;;;;;5073606;28;20021;-66
2021/11/04 04:01:59;;;;;;;7.57;5.77;;;7.10;99.90;;;;;;5075789;28;20335;-66
2021/11/04 04:04:24;;;;;;;6.50;4.68;;;7.10;99.90;;;;;;5073517;28;20032;-66
2021/11/04 04:06:52;;;;;;;6.00;4.50;;;7.20;99.90;;;;;;5074514;28;20020;-66
2021/11/04 04:09:20;;;;;;;7.20;4.78;;;7.10;99.90;;;;;;5074560;28;20021;-65
2021/11/04 04:11:45;;;;;;;8.63;4.57;;;7.10;99.90;;;;;;5074879;28;20401;-65
2021/11/04 04:14:11;;;;;;;6.20;3.93;;;7.10;99.90;;;;;;5074605;28;20024;-65
2021/11/04 04:16:37;;;;;;;5.30;4.00;;;7.10;99.90;;;;;;5074258;28;20028;-66
2021/11/04 04:19:02;;;;;;;5.60;3.60;;;7.10;99.90;;;;;;5074690;28;20017;-66
2021/11/04 04:21:28;;;;;;;6.70;4.10;;;7.10;99.90;;;;;;5074361;28;20028;-66
2021/11/04 04:23:53;;;;;;;5.93;4.03;;;7.00;99.90;;;;;;5072580;28;20020;-67
2021/11/04 04:26:19;;;;;;;4.40;3.60;;;7.00;99.90;;;;;;5073945;28;20032;-66
2021/11/04 04:28:45;;;;;;;5.43;4.00;;;7.10;99.90;;;;;;5074127;28;20048;-66
2021/11/04 04:31:11;;;;;;;5.18;3.70;;;7.10;99.90;;;;;;5072726;28;20111;-66
2021/11/04 04:33:37;;;;;;;4.38;3.70;;;7.10;99.90;;;;;;5072561;28;20036;-66
2021/11/04 04:36:02;;;;;;;4.33;3.20;;;7.00;99.90;;;;;;5074242;28;20027;-66
2021/11/04 04:38:28;;;;;;;5.07;3.67;;;7.00;99.90;;;;;;5074296;28;20112;-66
2021/11/04 04:40:54;;;;;;;4.07;3.47;;;6.90;99.90;;;;;;5073828;28;20100;-66
2021/11/04 04:43:19;;;;;;;5.83;3.40;;;6.90;99.90;;;;;;5072370;28;20017;-67
2021/11/04 04:45:45;;;;;;;5.60;3.75;;;6.90;99.90;;;;;;5072473;28;20025;-66
2021/11/04 04:48:11;;;;;;;4.50;3.60;;;6.90;99.90;;;;;;5073460;28;20036;-66
2021/11/04 04:50:38;;;;;;;4.83;3.83;;;6.90;99.90;;;;;;5073593;28;20128;-66
2021/11/04 04:53:04;;;;;;;4.90;4.00;;;6.90;99.90;;;;;;5073620;28;20098;-66
2021/11/04 04:55:30;;;;;;;5.15;3.72;;;6.90;99.90;;;;;;5073478;28;20163;-67
2021/11/04 04:57:55;;;;;;;6.20;4.30;;;6.80;99.90;;;;;;5072565;28;20070;-67
2021/11/04 05:00:21;;;;;;;5.90;3.90;;;6.80;99.90;;;;;;5073811;28;20059;-66
2021/11/04 05:02:48;;;;;;;6.03;4.68;;;6.80;99.90;;;;;;5073634;28;20024;-67
2021/11/04 05:05:14;;;;;;;6.13;4.63;;;6.90;99.90;;;;;;5073733;28;20395;-66
2021/11/04 05:07:40;;;;;;;;;;;6.90;99.90;;;;;;5074154;28;20024;-66
2021/11/04 05:10:07;;;;;;;5.00;3.85;;;6.90;99.90;;;;;;5072498;28;19908;-66
2021/11/04 05:12:33;;;;;;;7.05;4.30;;;6.80;99.90;;;;;;5073727;28;20509;-67
2021/11/04 05:14:58;;;;;;;5.35;4.22;;;6.90;99.90;;;;;;5072129;28;20028;-67
2021/11/04 05:17:24;;;;;;;5.60;4.13;;;6.90;99.90;;;;;;5073580;28;20074;-67
2021/11/04 05:19:50;;;;;;;5.68;4.60;;;6.90;99.90;;;;;;5074250;28;20078;-67
2021/11/04 05:22:16;;;;;;;15.68;8.05;;;7.00;99.90;;;;;;5072411;28;20417;-67
2021/11/04 05:24:42;;;;;;;7.17;4.17;;;7.00;99.90;;;;;;5073419;28;20039;-67
2021/11/04 05:27:08;;;;;;;5.50;4.10;;;7.00;99.90;;;;;;5073567;28;20071;-67
2021/11/04 05:29:34;;;;;;;6.88;3.97;;;6.90;99.90;;;;;;5073897;28;20074;-67
2021/11/04 05:32:06;;;;;;;4.35;3.42;;;6.80;99.90;;;;;;5073677;28;20055;-67
2021/11/04 05:34:36;;;;;;;6.20;4.88;;;6.80;99.90;;;;;;5073708;28;20036;-67
2021/11/04 05:37:02;;;;;;;5.75;3.83;;;6.90;99.90;;;;;;5073445;28;20158;-67
2021/11/04 05:39:28;;;;;;;6.20;3.60;;;6.90;99.90;;;;;;5073416;28;20020;-67
2021/11/04 05:41:53;;;;;;;5.40;4.27;;;6.90;99.90;;;;;;5073649;28;20036;-67
2021/11/04 05:44:19;;;;;;;4.53;3.40;;;7.00;99.90;;;;;;5073724;28;20040;-66
2021/11/04 05:46:44;;;;;;;5.10;3.70;;;7.00;99.90;;;;;;5073994;28;20033;-66
2021/11/04 05:49:10;;;;;;;3.80;3.10;;;7.00;99.90;;;;;;5074163;28;20052;-66
2021/11/04 05:51:35;;;;;;;4.27;3.40;;;7.00;99.90;;;;;;5073928;28;20108;-66
2021/11/04 05:54:01;;;;;;;6.07;4.33;;;7.00;99.90;;;;;;5072430;28;20471;-67
2021/11/04 05:56:27;;;;;;;5.50;3.73;;;7.00;99.90;;;;;;5073439;28;20107;-67
2021/11/04 05:58:52;;;;;;;6.87;4.50;;;7.00;99.90;;;;;;5073567;28;20021;-66
2021/11/04 06:01:18;;;;;;;5.53;3.43;;;7.00;99.90;;;;;;5077496;28;20074;-67
2021/11/04 06:03:43;;;;;;;5.23;4.10;;;7.00;99.90;;;;;;5077667;28;20025;-66
2021/11/04 06:06:09;;;;;;;8.70;4.50;;;7.00;99.90;;;;;;5077764;28;20039;-66
2021/11/04 06:08:35;;;;;;;6.07;4.40;;;7.00;99.90;;;;;;5077717;28;20023;-67
2021/11/04 06:11:00;;;;;;;6.63;4.77;;;6.90;99.90;;;;;;5076315;28;20391;-66
2021/11/04 06:13:26;;;;;;;6.60;4.30;;;7.00;99.90;;;;;;5077306;28;20096;-67
2021/11/04 06:15:52;;;;;;;6.13;4.20;;;7.00;99.90;;;;;;5077585;28;20469;-69
2021/11/04 06:18:17;;;;;;;5.93;4.55;;;7.00;99.90;;;;;;5078315;28;20029;-67
2021/11/04 06:20:43;;;;;;;7.93;5.17;;;7.10;99.90;;;;;;5077294;28;20553;-67
2021/11/04 06:23:09;;;;;;;6.07;4.80;;;7.00;99.90;;;;;;5075930;28;20107;-67
2021/11/04 06:25:34;;;;;;;6.63;4.90;;;7.10;99.90;;;;;;5076831;28;20025;-66
2021/11/04 06:28:00;;;;;;;7.90;4.97;;;7.10;99.90;;;;;;5077207;28;20471;-66
2021/11/04 06:30:26;;;;;;;8.03;4.93;;;7.10;99.90;;;;;;5076713;28;20070;-63
2021/11/04 06:32:51;;;;;;;8.13;5.87;;;7.10;99.90;;;;;;5077275;28;20020;-67
2021/11/04 06:35:17;;;;;;;7.27;5.33;;;7.00;99.90;;;;;;5075361;28;20489;-66
2021/11/04 06:37:43;;;;;;;8.27;5.77;;;7.10;99.90;;;;;;5076805;28;20070;-66
2021/11/04 06:40:09;;;;;;;7.57;5.43;;;7.10;99.90;;;;;;5075490;28;20021;-68
2021/11/04 06:42:36;;;;;;;;;;;7.10;99.90;;;;;;5075737;28;20040;-66
2021/11/04 06:45:04;;;;;;;8.23;5.63;;;7.00;99.90;;;;;;5075514;28;19915;-66
2021/11/04 06:47:42;;;;;;;8.50;5.57;;;7.20;99.90;;;;;;5077303;28;20021;-66
2021/11/04 06:50:10;;;;;;;8.98;6.38;;;7.20;99.90;;;;;;5075556;28;20025;-66
2021/11/04 06:52:43;;;;;;;13.18;7.30;;;7.10;99.90;;;;;;5076482;28;20499;-66
2021/11/04 06:55:12;;;;;;;11.80;7.57;;;7.10;99.90;;;;;;5075079;28;20029;-66
2021/11/04 06:57:41;;;;;;;11.75;7.60;;;7.10;99.90;;;;;;5075174;28;20029;-67
2021/11/04 07:00:09;;;;;;;11.45;7.95;;;7.20;99.90;;;;;;5076745;28;20469;-66
2021/11/04 07:02:37;;;;;;;13.27;8.05;;;7.20;99.90;;;;;;5077133;28;20023;-66
2021/11/04 07:05:04;;;;;;;12.30;7.65;;;7.10;99.90;;;;;;5075593;28;20036;-67
2021/11/04 07:07:44;;;;;;;10.10;7.18;;;7.20;99.90;;;;;;5077066;28;20020;-67
2021/11/04 07:10:11;;;;;;;14.65;8.73;;;7.20;99.90;;;;;;5074820;28;20582;-66
2021/11/04 07:12:42;;;;;;;13.25;8.48;;;7.30;99.90;;;;;;5075065;28;20029;-67
2021/11/04 07:15:08;;;;;;;14.32;9.18;;;7.30;99.90;;;;;;5075590;28;20549;-66
2021/11/04 07:17:38;;;;;;;16.00;10.27;;;7.20;99.90;;;;;;5075537;28;20099;-66
2021/11/04 07:20:04;;;;;;;15.95;9.95;;;7.30;99.90;;;;;;5075102;28;20048;-67
2021/11/04 07:22:30;;;;;;;16.27;9.20;;;7.30;99.90;;;;;;5074055;28;20487;-66
2021/11/04 07:25:13;;;;;;;16.63;10.33;;;7.30;99.90;;;;;;5075249;28;20081;-66
2021/11/04 07:27:45;;;;;;;16.52;9.68;;;7.30;99.90;;;;;;5075165;28;20539;-66
2021/11/04 07:30:14;;;;;;;18.63;11.38;;;7.20;99.90;;;;;;5074909;28;20394;-66
2021/11/04 07:32:53;;;;;;;16.10;10.82;;;7.20;99.90;;;;;;5073875;28;20082;-66
2021/11/04 07:35:40;;;;;;;17.50;11.02;;;7.20;99.90;;;;;;5073732;28;20036;-66
2021/11/04 07:38:08;;;;;;;20.20;11.10;;;7.10;99.90;;;;;;5075525;28;20094;-66
2021/11/04 07:40:34;;;;;;;21.20;11.63;;;7.10;99.90;;;;;;5075666;28;20024;-68
2021/11/04 07:43:00;;;;;;;20.77;11.60;;;7.10;99.90;;;;;;5075408;28;20069;-67
2021/11/04 07:45:28;;;;;;;20.45;11.35;;;7.10;99.90;;;;;;5074437;28;20521;-67
2021/11/04 07:47:54;;;;;;;20.38;11.90;;;7.00;99.90;;;;;;5076713;28;20028;-67
2021/11/04 07:50:23;;;;;;;22.13;12.38;;;7.10;99.90;;;;;;5076352;28;20024;-68
2021/11/04 07:52:49;;;;;;;21.42;13.32;;;7.10;99.90;;;;;;5076142;28;20146;-67
2021/11/04 07:55:16;;;;;;;25.58;13.57;;;7.10;99.90;;;;;;5075739;28;20025;-67
2021/11/04 07:57:42;;;;;;;25.92;13.27;;;7.10;99.90;;;;;;5076009;28;20572;-67
2021/11/04 08:00:11;;;;;;;21.08;11.82;;;7.10;99.90;;;;;;5076484;28;20028;-67
2021/11/04 08:02:40;;;;;;;21.25;12.32;;;7.10;99.90;;;;;;5075984;28;20020;-68
2021/11/04 08:05:07;;;;;;;19.67;11.55;;;7.10;99.90;;;;;;5076242;28;20048;-68
2021/11/04 08:07:35;;;;;;;21.90;12.30;;;7.10;99.90;;;;;;5074939;28;20020;-68
2021/11/04 08:10:01;;;;;;;20.10;11.40;;;7.20;99.90;;;;;;5073951;28;20355;-68
2021/11/04 08:12:27;;;;;;;20.88;11.63;;;7.10;99.90;;;;;;5074482;28;20348;-68
2021/11/04 08:14:52;;;;;;;19.13;11.77;;;7.20;99.90;;;;;;5075044;28;20025;-68
2021/11/04 08:17:18;;;;;;;26.37;12.43;;;7.20;99.90;;;;;;5074780;28;20475;-69
2021/11/04 08:19:44;;;;;;;23.23;11.80;;;7.20;99.90;;;;;;5073183;28;20028;-69
2021/11/04 08:22:09;;;;;;;20.80;11.73;;;7.20;99.90;;;;;;5073151;28;20017;-69
2021/11/04 08:24:35;;;;;;;24.90;12.17;;;7.20;99.90;;;;;;5071910;28;20028;-69
2021/11/04 08:27:00;;;;;;;23.77;13.37;;;7.10;99.90;;;;;;5073660;28;20062;-68
2021/11/04 08:29:26;;;;;;;24.70;13.53;;;7.10;99.90;;;;;;5073614;28;20024;-69
2021/11/04 08:31:52;;;;;;;24.63;13.53;;;7.10;99.90;;;;;;5073663;28;20032;-69
2021/11/04 08:34:17;;;;;;;27.38;14.07;;;7.10;99.90;;;;;;5074093;28;20038;-69
2021/11/04 08:36:43;;;;;;;24.63;14.53;;;7.10;99.90;;;;;;5073731;28;20568;-68
2021/11/04 08:39:10;;;;;;;25.90;14.00;;;7.10;99.90;;;;;;5072511;28;20028;-68
2021/11/04 08:41:36;;;;;;;40.17;15.63;;;7.20;99.90;;;;;;5073788;28;20082;-68
2021/11/04 08:44:02;;;;;;;26.40;13.33;;;7.20;99.90;;;;;;5073424;28;20028;-68
2021/11/04 08:46:29;;;;;;;29.70;15.65;;;7.20;99.90;;;;;;5074904;28;20440;-68
2021/11/04 08:48:55;;;;;;;31.50;15.27;;;7.20;99.90;;;;;;5072749;28;20035;-68
2021/11/04 08:51:20;;;;;;;30.70;16.05;;;7.20;99.90;;;;;;5072555;28;20021;-67
2021/11/04 08:53:46;;;;;;;29.43;15.53;;;7.20;99.90;;;;;;5072708;28;20078;-68
2021/11/04 08:56:11;;;;;;;30.27;15.50;;;7.30;99.90;;;;;;5072542;28;20090;-67
2021/11/04 08:58:37;;;;;;;27.07;14.40;;;7.30;99.90;;;;;;5072496;28;20505;-67
2021/11/04 09:01:04;;;;;;;32.47;15.43;;;7.30;99.90;;;;;;5073755;28;20040;-69
2021/11/04 09:03:30;;;;;;;28.95;16.27;;;7.30;99.90;;;;;;5073481;28;20043;-68
2021/11/04 09:05:56;;;;;;;32.30;16.13;;;7.40;99.90;;;;;;5071964;28;20466;-68
2021/11/04 09:08:23;;;;;;;29.45;16.33;;;7.40;99.90;;;;;;5071998;28;20028;-68
2021/11/04 09:10:49;;;;;;;31.58;15.70;;;7.40;99.90;;;;;;5072878;28;20035;-68
2021/11/04 09:13:15;;;;;;;31.15;15.77;;;7.40;99.90;;;;;;5073739;28;20507;-69
2021/11/04 09:15:41;;;;;;;30.90;16.55;;;7.50;99.90;;;;;;5073872;28;20063;-68
2021/11/04 09:18:07;;;;;;;31.73;16.60;;;7.50;99.90;;;;;;5073423;28;20090;-68
2021/11/04 09:20:33;;;;;;;34.70;15.90;;;7.50;99.90;;;;;;5072234;28;20074;-68
2021/11/04 09:22:59;;;;;;;31.52;16.33;;;7.60;99.90;;;;;;5073344;28;20013;-68
2021/11/04 09:25:24;;;;;;;29.77;15.97;;;7.60;99.90;;;;;;5073150;28;20025;-68
2021/11/04 09:27:52;;;;;;;32.47;17.50;;;7.60;99.90;;;;;;5071760;28;20056;-68
2021/11/04 09:30:18;;;;;;;35.10;17.00;;;7.70;99.90;;;;;;5073183;28;20036;-68
2021/11/04 09:32:47;;;;;;;32.97;16.65;;;7.70;99.90;;;;;;5071898;28;20082;-68
2021/11/04 09:35:13;;;;;;;33.25;17.55;;;7.60;99.90;;;;;;5071219;28;20036;-68
2021/11/04 09:37:39;;;;;;;33.88;18.48;;;7.60;99.90;;;;;;5071676;28;20108;-68
2021/11/04 09:40:06;;;;;;;34.40;18.05;;;7.60;99.90;;;;;;5071873;28;20052;-68
2021/11/04 09:42:33;;;;;;;36.08;19.20;;;7.60;99.90;;;;;;5072966;28;20364;-67
2021/11/04 09:44:59;;;;;;;35.20;18.50;;;7.70;99.90;;;;;;5071469;28;20029;-67
2021/11/04 09:47:27;;;;;;;36.63;19.13;;;7.70;99.90;;;;;;5072840;28;20032;-67
2021/11/04 09:49:55;;;;;;;37.13;18.55;;;7.80;99.90;;;;;;5072938;28;20290;-67
2021/11/04 09:52:28;;;;;;;37.03;18.98;;;7.80;99.90;;;;;;5072831;28;20036;-68
2021/11/04 09:54:55;;;;;;;38.47;19.25;;;7.80;99.90;;;;;;5073705;28;20162;-68
2021/11/04 09:57:22;;;;;;;31.75;17.85;;;7.90;99.90;;;;;;5073190;28;20044;-68
2021/11/04 09:59:48;;;;;;;35.95;18.17;;;7.90;99.90;;;;;;5072411;28;20027;-68
2021/11/04 10:02:20;;;;;;;38.00;19.30;;;7.90;99.90;;;;;;5074365;28;20383;-67
2021/11/04 10:04:46;;;;;;;35.47;19.90;;;7.90;99.90;;;;;;5073789;28;20537;-67
2021/11/04 10:07:13;;;;;;;35.53;19.73;;;7.90;99.90;;;;;;5073633;28;20032;-68
2021/11/04 10:09:40;;;;;;;36.53;18.77;;;7.90;99.90;;;;;;5071809;28;20097;-68
2021/11/04 10:12:12;;;;;;;34.45;19.27;;;7.90;99.90;;;;;;5072813;28;20395;-68
2021/11/04 10:14:40;;;;;;;35.65;19.20;;;7.90;99.90;;;;;;5073901;28;20024;-69
2021/11/04 10:17:25;;;;;;;35.92;20.10;;;7.90;99.90;;;;;;5075949;28;20032;-67
2021/11/04 10:19:50;;;;;;;33.85;20.17;;;7.90;99.90;;;;;;5074274;28;20086;-67
2021/11/04 10:22:24;;;;;;;34.10;19.03;;;7.90;99.90;;;;;;5072007;28;20033;-67
2021/11/04 10:24:50;;;;;;;33.42;19.17;;;7.80;99.90;;;;;;5073214;28;20099;-67
2021/11/04 10:27:32;;;;;;;39.27;19.57;;;7.80;99.90;;;;;;5073100;28;20063;-67
2021/11/04 10:30:02;;;;;;;33.30;19.02;;;7.80;99.90;;;;;;5075192;28;20051;-67
2021/11/04 10:32:36;;;;;;;32.53;18.23;;;7.80;99.90;;;;;;5074302;28;20386;-67
2021/11/04 10:35:08;;;;;;;30.45;18.35;;;7.80;99.90;;;;;;5073542;28;20032;-68
2021/11/04 10:37:50;;;;;;;33.20;20.00;;;7.80;99.90;;;;;;5075308;28;20115;-68
2021/11/04 10:40:19;;;;;;;30.10;18.08;;;7.80;99.90;;;;;;5074977;28;20032;-67
2021/11/04 10:42:55;;;;;;;37.08;19.20;;;7.80;99.90;;;;;;5073029;28;20024;-66
2021/11/04 10:45:26;;;;;;;34.08;19.08;;;7.80;99.90;;;;;;5072464;28;20025;-67
2021/11/04 10:48:23;;;;;;;32.50;20.02;;;7.80;99.90;;;;;;5073800;28;20067;-67
2021/11/04 10:50:50;;;;;;;33.25;18.92;;;7.80;99.90;;;;;;5075758;28;20149;-66
2021/11/04 10:53:20;;;;;;;30.90;19.08;;;7.80;99.90;;;;;;5075795;28;20494;-66
2021/11/04 10:55:54;;;;;;;35.65;20.45;;;7.80;99.90;;;;;;5074400;28;20410;-67
2021/11/04 10:58:27;;;;;;;33.47;18.73;;;7.80;99.90;;;;;;5076343;28;20150;-66
2021/11/04 11:00:53;;;;;;;31.33;18.92;;;7.90;99.90;;;;;;5074900;28;20107;-67
2021/11/04 11:03:22;;;;;;;33.37;18.53;;;7.80;99.90;;;;;;5075674;28;20044;-67
2021/11/04 11:05:48;;;;;;;32.00;19.13;;;7.90;99.90;;;;;;5075892;28;20024;-67
2021/11/04 11:08:14;;;;;;;38.28;20.23;;;7.90;99.90;;;;;;5075183;28;20036;-67
2021/11/04 11:10:41;;;;;;;34.97;20.33;;;7.90;99.90;;;;;;5075870;28;20526;-67
2021/11/04 11:13:08;;;;;;;31.65;19.00;;;7.90;99.90;;;;;;5075806;28;20039;-66
2021/11/04 11:15:36;;;;;;;39.60;19.30;;;8.00;99.90;;;;;;5075735;28;20470;-67
2021/11/04 11:18:05;;;;;;;31.35;18.42;;;8.00;99.90;;;;;;5074276;28;20064;-67
2021/11/04 11:20:32;;;;;;;32.10;19.08;;;8.00;99.90;;;;;;5075983;28;20017;-67
2021/11/04 11:22:58;;;;;;;;;;;8.00;99.90;;;;;;5077547;28;20031;-66
2021/11/04 11:25:24;;;;;;;27.63;17.80;;;8.00;99.90;;;;;;5076332;28;19904;-67
2021/11/04 11:27:52;;;;;;;30.80;19.23;;;8.10;99.90;;;;;;5075753;28;20423;-66
2021/11/04 11:30:17;;;;;;;31.17;18.92;;;8.10;99.90;;;;;;5073819;28;20544;-66
2021/11/04 11:32:47;;;;;;;30.47;18.33;;;8.10;99.90;;;;;;5073867;28;20036;-68
2021/11/04 11:35:22;;;;;;;27.40;17.13;;;8.20;99.90;;;;;;5088649;23;20402;-67
2021/11/04 11:37:59;;;;;;;29.95;18.35;;;8.20;99.90;;;;;;5076502;28;20108;-68
2021/11/04 11:40:28;;;;;;;29.42;18.42;;;8.20;99.90;;;;;;5076520;28;20470;-67
2021/11/04 11:42:59;;;;;;;29.00;17.30;;;8.20;99.90;;;;;;5060092;28;20051;-68
2021/11/04 11:45:27;;;;;;;26.98;17.55;;;8.20;99.90;;;;;;5078487;28;20095;-67
2021/11/04 11:47:53;;;;;;;29.83;16.90;;;8.20;99.90;;;;;;5077286;28;20076;-66
2021/11/04 11:50:28;;;;;;;27.17;16.88;;;8.30;99.90;;;;;;5076245;28;20033;-66
2021/11/04 11:53:24;;;;;;;26.52;16.58;;;8.30;99.90;;;;;;5077246;28;20064;-66
2021/11/04 11:55:54;;;;;;;27.52;16.15;;;8.20;99.90;;;;;;5059077;28;20040;-66
2021/11/04 11:58:30;;;;;;;24.85;16.38;;;8.20;99.90;;;;;;5075545;28;20064;-66
2021/11/04 12:00:59;;;;;;;24.85;15.95;;;8.20;99.90;;;;;;5077465;28;20480;-66
2021/11/04 12:03:37;;;;;;;25.48;16.27;;;8.20;99.90;;;;;;5078268;28;20526;-67
2021/11/04 12:06:24;;;;;;;25.65;17.00;;;8.10;99.90;;;;;;5073974;28;20335;-66
2021/11/04 12:08:57;;;;;;;28.07;16.00;;;8.10;99.90;;;;;;5074267;28;20020;-66
2021/11/04 12:11:41;;;;;;;26.10;16.42;;;8.10;99.90;;;;;;5073602;28;20266;-67
2021/11/04 12:14:16;;;;;;;21.90;14.68;;;8.10;99.90;;;;;;5074867;28;20364;-67
2021/11/04 12:17:00;;;;;;;25.92;15.32;;;8.10;99.90;;;;;;5074745;28;20538;-67
2021/11/04 12:19:36;;;;;;;29.35;16.08;;;8.00;99.90;;;;;;5075068;28;20021;-68
2021/11/04 12:22:02;;;;;;;24.15;15.20;;;8.10;99.90;;;;;;5073220;28;20424;-66
2021/11/04 12:24:27;;;;;;;25.23;15.65;;;8.00;99.90;;;;;;5072812;28;20371;-66
2021/11/04 12:26:53;;;;;;;23.70;15.95;;;8.00;99.90;;;;;;5074107;28;20035;-66
2021/11/04 12:29:27;;;;;;;24.20;16.53;;;8.00;99.90;;;;;;5072841;28;20020;-66
2021/11/04 12:31:52;;;;;;;28.23;16.20;;;8.00;99.90;;;;;;5074225;28;20115;-66
2021/11/04 12:34:23;;;;;;;28.00;16.23;;;8.00;99.90;;;;;;5072533;28;20117;-65
2021/11/04 12:36:49;;;;;;;23.98;15.43;;;8.10;99.90;;;;;;5074246;28;20500;-66
2021/11/04 12:39:24;;;;;;;23.58;15.80;;;8.10;99.90;;;;;;5072552;28;20020;-66
2021/11/04 12:41:51;;;;;;;25.45;15.88;;;8.20;99.90;;;;;;5072343;28;20093;-66
2021/11/04 12:44:28;;;;;;;25.58;15.77;;;8.20;99.90;;;;;;5074213;28;20113;-66
2021/11/04 12:46:55;;;;;;;22.83;15.18;;;8.20;99.90;;;;;;5073782;28;20085;-66
2021/11/04 12:49:27;;;;;;;23.88;14.35;;;8.30;99.90;;;;;;5073957;28;20099;-66
2021/11/04 12:51:54;;;;;;;23.95;17.17;;;8.30;99.90;;;;;;5073802;28;20425;-66